Date,TemperatureHighF,TemperatureAvgF,TemperatureLowF,DewpointHighF,DewpointAvgF,DewpointLowF,HumidityHigh,HumidityAvg,HumidityLow,PressureMaxIn,PressureMinIn,WindSpeedMaxMPH,WindSpeedAvgMPH,GustSpeedMaxMPH,PrecipitationSumIn
2013-11-1,77.0,62.9,51.6,53.2,48.7,37.0,100,65,26,30.13,29.83,17,4,19,0.00
2013-11-2,70.0,58.5,48.8,47.7,42.5,32.9,91,59,28,30.33,30.13,16,4,16,0.00
2013-11-3,69.8,57.7,46.0,49.8,45.0,40.4,98,65,39,30.24,29.96,26,8,30,0.00
2013-11-4,63.5,60.7,57.0,63.5,59.2,49.5,100,95,64,30.09,29.96,22,8,25,0.26
2013-11-5,71.0,67.7,62.6,71.0,67.7,62.6,100,100,100,30.04,29.92,22,8,26,0.09
2013-11-6,71.7,57.4,45.9,71.7,50.8,39.9,100,80,46,30.39,29.97,29,7,36,0.39
2013-11-7,66.3,57.2,44.6,48.8,44.5,37.0,96,66,35,30.53,30.38,10,2,12,0.00
2013-11-8,67.0,55.9,44.4,51.6,45.1,35.2,100,71,33,30.39,30.12,20,5,21,0.00
2013-11-9,70.3,62.4,57.3,59.4,53.6,46.9,97,74,60,30.21,30.08,23,8,23,0.00
2013-11-10,68.8,59.5,53.0,59.2,56.0,53.0,100,89,70,30.33,30.20,11,4,12,0.00
2013-11-11,75.8,61.6,47.8,59.7,55.7,47.8,100,83,55,30.29,30.17,12,2,12,0.00
2013-11-12,61.8,50.1,35.6,60.5,39.1,22.9,100,69,32,30.70,30.29,26,8,26,0.00
2013-11-13,55.7,41.5,29.5,34.3,30.5,26.6,90,67,37,30.70,30.38,11,3,11,0.00
2013-11-14,61.7,49.4,35.2,48.3,36.5,28.7,91,65,31,30.38,30.00,23,8,23,0.00
2013-11-15,76.4,61.7,51.2,62.2,54.9,48.1,100,81,46,30.00,29.83,17,7,17,0.00
2013-11-16,82.1,71.1,61.8,71.6,64.6,60.3,100,82,50,29.86,29.67,25,9,29,0.00
2013-11-17,89.0,76.3,66.1,72.3,54.9,34.7,100,57,16,30.00,29.71,21,7,22,0.00
2013-11-18,74.1,64.8,58.0,40.3,35.6,30.1,44,34,21,30.18,30.00,21,6,22,0.00
2013-11-19,70.3,62.4,56.1,46.3,42.8,38.2,68,50,35,30.17,29.99,21,7,21,0.00
2013-11-20,68.9,61.7,53.0,64.2,53.1,45.5,100,74,62,30.01,29.87,21,9,21,0.00
2013-11-21,79.8,66.2,41.5,75.0,65.1,41.4,100,96,77,30.25,29.93,24,7,26,0.21
2013-11-22,41.9,36.6,34.0,41.8,36.3,33.9,100,99,93,30.46,30.24,26,10,27,0.09
2013-11-23,42.9,38.2,35.1,40.7,36.2,30.6,100,93,76,30.55,30.45,21,8,21,0.09
2013-11-24,38.4,36.2,33.7,34.6,31.2,26.6,95,82,71,30.58,30.33,19,6,19,0.09
2013-11-25,40.4,37.6,34.8,39.8,37.3,34.2,100,99,96,30.34,30.15,15,3,17,0.51
2013-11-26,53.9,43.2,37.2,39.6,36.1,29.9,100,79,42,30.40,30.18,28,9,30,0.01
2013-11-27,50.7,38.8,29.9,31.2,26.3,17.2,90,64,30,30.50,30.33,19,4,20,0.00
2013-11-28,58.9,43.4,31.7,35.1,31.9,27.0,91,67,31,30.44,30.32,14,4,14,0.00
2013-11-29,60.9,47.3,35.1,46.7,40.0,32.9,95,78,47,30.49,30.32,16,4,16,0.00
2013-11-30,68.8,56.0,44.7,56.2,51.8,44.7,100,88,61,30.34,30.14,23,7,24,0.00